sensor_id;sensor_type;location;lat;lon;timestamp;temperature;humidity
37289;DHT22;23174;49.462;11.000;2023-04-24T00:01:48;13.90;99.90
37289;DHT22;23174;49.462;11.000;2023-04-24T00:03:48;13.90;99.90
37289;DHT22;23174;49.462;11.000;2023-04-24T00:05:49;13.90;99.90
37289;DHT22;23174;49.462;11.000;2023-04-24T00:07:51;14.00;99.90
37289;DHT22;23174;49.462;11.000;2023-04-24T00:09:55;14.00;99.90
37289;DHT22;23174;49.462;11.000;2023-04-24T00:11:56;14.00;99.90
37289;DHT22;23174;49.462;11.000;2023-04-24T00:13:57;14.00;99.90
37289;DHT22;23174;49.462;11.000;2023-04-24T00:15:57;14.00;99.90
37289;DHT22;23174;49.462;11.000;2023-04-24T00:17:58;14.00;99.90
37289;DHT22;23174;49.462;11.000;2023-04-24T00:19:58;14.00;99.90
37289;DHT22;23174;49.462;11.000;2023-04-24T00:21:59;14.00;99.90
37289;DHT22;23174;49.462;11.000;2023-04-24T00:24:00;14.10;99.90
37289;DHT22;23174;49.462;11.000;2023-04-24T00:26:00;14.10;99.90
37289;DHT22;23174;49.462;11.000;2023-04-24T00:28:01;14.10;99.90
37289;DHT22;23174;49.462;11.000;2023-04-24T00:30:01;14.20;99.90
37289;DHT22;23174;49.462;11.000;2023-04-24T00:32:02;14.20;99.90
37289;DHT22;23174;49.462;11.000;2023-04-24T00:34:03;14.20;99.90
37289;DHT22;23174;49.462;11.000;2023-04-24T00:36:04;14.20;99.90
37289;DHT22;23174;49.462;11.000;2023-04-24T00:38:04;14.20;99.90
37289;DHT22;23174;49.462;11.000;2023-04-24T00:40:06;14.20;99.90
37289;DHT22;23174;49.462;11.000;2023-04-24T00:42:07;14.20;99.90
37289;DHT22;23174;49.462;11.000;2023-04-24T00:44:07;14.10;99.90
37289;DHT22;23174;49.462;11.000;2023-04-24T00:46:08;14.20;99.90
37289;DHT22;23174;49.462;11.000;2023-04-24T00:48:09;14.20;99.90
37289;DHT22;23174;49.462;11.000;2023-04-24T00:50:10;14.00;99.90
37289;DHT22;23174;49.462;11.000;2023-04-24T00:52:11;14.00;99.90
37289;DHT22;23174;49.462;11.000;2023-04-24T00:54:13;14.00;99.90
37289;DHT22;23174;49.462;11.000;2023-04-24T00:56:13;14.00;99.90
37289;DHT22;23174;49.462;11.000;2023-04-24T00:58:14;14.00;99.90
37289;DHT22;23174;49.462;11.000;2023-04-24T01:00:15;13.90;99.90
37289;DHT22;23174;49.462;11.000;2023-04-24T01:02:16;13.90;99.90
37289;DHT22;23174;49.462;11.000;2023-04-24T01:04:17;13.90;99.90
37289;DHT22;23174;49.462;11.000;2023-04-24T01:06:19;13.90;99.90
37289;DHT22;23174;49.462;11.000;2023-04-24T01:08:22;14.00;99.90
37289;DHT22;23174;49.462;11.000;2023-04-24T01:10:24;13.90;99.90
37289;DHT22;23174;49.462;11.000;2023-04-24T01:12:25;14.00;99.90
37289;DHT22;23174;49.462;11.000;2023-04-24T01:14:26;13.90;99.90
37289;DHT22;23174;49.462;11.000;2023-04-24T01:16:27;13.90;99.90
37289;DHT22;23174;49.462;11.000;2023-04-24T01:18:27;13.80;99.90
37289;DHT22;23174;49.462;11.000;2023-04-24T01:20:28;13.90;99.90
37289;DHT22;23174;49.462;11.000;2023-04-24T01:22:30;13.80;99.90
37289;DHT22;23174;49.462;11.000;2023-04-24T01:24:30;13.80;99.90
37289;DHT22;23174;49.462;11.000;2023-04-24T01:26:31;13.80;99.90
37289;DHT22;23174;49.462;11.000;2023-04-24T01:28:32;13.80;99.90
37289;DHT22;23174;49.462;11.000;2023-04-24T01:30:33;13.80;99.90
37289;DHT22;23174;49.462;11.000;2023-04-24T01:32:33;13.80;99.90
37289;DHT22;23174;49.462;11.000;2023-04-24T01:34:34;13.80;99.90
37289;DHT22;23174;49.462;11.000;2023-04-24T01:36:35;13.80;99.90
37289;DHT22;23174;49.462;11.000;2023-04-24T01:38:36;13.80;99.90
37289;DHT22;23174;49.462;11.000;2023-04-24T01:40:37;13.80;99.90
37289;DHT22;23174;49.462;11.000;2023-04-24T01:42:38;13.80;99.90
37289;DHT22;23174;49.462;11.000;2023-04-24T01:44:38;13.80;99.90
37289;DHT22;23174;49.462;11.000;2023-04-24T01:46:39;13.90;99.90
37289;DHT22;23174;49.462;11.000;2023-04-24T01:48:40;13.80;99.90
37289;DHT22;23174;49.462;11.000;2023-04-24T01:50:41;13.90;99.90
37289;DHT22;23174;49.462;11.000;2023-04-24T01:52:42;13.90;99.90
37289;DHT22;23174;49.462;11.000;2023-04-24T01:54:42;13.80;99.90
37289;DHT22;23174;49.462;11.000;2023-04-24T01:56:43;13.80;99.90
37289;DHT22;23174;49.462;11.000;2023-04-24T01:58:44;13.80;99.90
37289;DHT22;23174;49.462;11.000;2023-04-24T02:00:44;13.80;99.90
37289;DHT22;23174;49.462;11.000;2023-04-24T02:02:45;13.90;99.90
37289;DHT22;23174;49.462;11.000;2023-04-24T02:04:46;13.90;99.90
37289;DHT22;23174;49.462;11.000;2023-04-24T02:06:46;13.90;99.90
37289;DHT22;23174;49.462;11.000;2023-04-24T02:08:47;13.90;99.90
37289;DHT22;23174;49.462;11.000;2023-04-24T02:10:47;14.00;99.90
37289;DHT22;23174;49.462;11.000;2023-04-24T02:12:48;13.90;99.90
37289;DHT22;23174;49.462;11.000;2023-04-24T02:14:48;13.90;99.90
37289;DHT22;23174;49.462;11.000;2023-04-24T02:16:49;13.90;99.90
37289;DHT22;23174;49.462;11.000;2023-04-24T02:18:49;13.90;99.90
37289;DHT22;23174;49.462;11.000;2023-04-24T02:20:50;13.90;99.90
37289;DHT22;23174;49.462;11.000;2023-04-24T02:22:50;13.90;99.90
37289;DHT22;23174;49.462;11.000;2023-04-24T02:24:51;13.90;99.90
37289;DHT22;23174;49.462;11.000;2023-04-24T02:26:51;13.90;99.90
37289;DHT22;23174;49.462;11.000;2023-04-24T02:28:52;13.90;99.90
37289;DHT22;23174;49.462;11.000;2023-04-24T02:30:52;13.90;99.90
37289;DHT22;23174;49.462;11.000;2023-04-24T02:32:53;13.80;99.90
37289;DHT22;23174;49.462;11.000;2023-04-24T02:34:54;13.90;99.90
37289;DHT22;23174;49.462;11.000;2023-04-24T02:36:54;13.80;99.90
37289;DHT22;23174;49.462;11.000;2023-04-24T02:38:55;13.90;99.90
37289;DHT22;23174;49.462;11.000;2023-04-24T02:40:55;13.90;99.90
37289;DHT22;23174;49.462;11.000;2023-04-24T02:42:56;13.90;99.90
37289;DHT22;23174;49.462;11.000;2023-04-24T02:44:56;13.90;99.90
37289;DHT22;23174;49.462;11.000;2023-04-24T02:46:57;13.90;99.90
37289;DHT22;23174;49.462;11.000;2023-04-24T02:48:57;13.80;99.90
37289;DHT22;23174;49.462;11.000;2023-04-24T02:50:57;13.80;99.90
37289;DHT22;23174;49.462;11.000;2023-04-24T02:52:58;13.90;99.90
37289;DHT22;23174;49.462;11.000;2023-04-24T02:54:58;13.90;99.90
37289;DHT22;23174;49.462;11.000;2023-04-24T02:56:59;13.80;99.90
37289;DHT22;23174;49.462;11.000;2023-04-24T02:59:01;13.80;99.90
37289;DHT22;23174;49.462;11.000;2023-04-24T03:01:02;13.80;99.90
37289;DHT22;23174;49.462;11.000;2023-04-24T03:03:02;13.90;99.90
37289;DHT22;23174;49.462;11.000;2023-04-24T03:05:03;13.90;99.90
37289;DHT22;23174;49.462;11.000;2023-04-24T03:07:04;13.80;99.90
37289;DHT22;23174;49.462;11.000;2023-04-24T03:09:05;13.80;99.90
37289;DHT22;23174;49.462;11.000;2023-04-24T03:11:06;13.80;99.90
37289;DHT22;23174;49.462;11.000;2023-04-24T03:13:06;13.90;99.90
37289;DHT22;23174;49.462;11.000;2023-04-24T03:15:07;13.90;99.90
37289;DHT22;23174;49.462;11.000;2023-04-24T03:17:08;13.90;99.90
37289;DHT22;23174;49.462;11.000;2023-04-24T03:19:09;13.80;99.90
37289;DHT22;23174;49.462;11.000;2023-04-24T03:21:09;13.80;99.90
37289;DHT22;23174;49.462;11.000;2023-04-24T03:23:10;13.80;99.90
37289;DHT22;23174;49.462;11.000;2023-04-24T03:25:10;13.80;99.90
37289;DHT22;23174;49.462;11.000;2023-04-24T03:27:11;13.80;99.90
37289;DHT22;23174;49.462;11.000;2023-04-24T03:29:11;13.80;99.90
37289;DHT22;23174;49.462;11.000;2023-04-24T03:31:12;13.80;99.90
37289;DHT22;23174;49.462;11.000;2023-04-24T03:33:12;13.80;99.90
37289;DHT22;23174;49.462;11.000;2023-04-24T03:35:13;13.80;99.90
37289;DHT22;23174;49.462;11.000;2023-04-24T03:37:13;13.80;99.90
37289;DHT22;23174;49.462;11.000;2023-04-24T03:39:13;13.80;99.90
37289;DHT22;23174;49.462;11.000;2023-04-24T03:41:14;13.70;99.90
37289;DHT22;23174;49.462;11.000;2023-04-24T03:43:15;13.80;99.90
37289;DHT22;23174;49.462;11.000;2023-04-24T03:45:15;13.80;99.90
37289;DHT22;23174;49.462;11.000;2023-04-24T03:47:15;13.80;99.90
37289;DHT22;23174;49.462;11.000;2023-04-24T03:49:16;13.70;99.90
37289;DHT22;23174;49.462;11.000;2023-04-24T03:51:16;13.70;99.90
37289;DHT22;23174;49.462;11.000;2023-04-24T03:53:17;13.80;99.90
37289;DHT22;23174;49.462;11.000;2023-04-24T03:55:18;13.80;99.90
37289;DHT22;23174;49.462;11.000;2023-04-24T03:57:18;13.80;99.90
37289;DHT22;23174;49.462;11.000;2023-04-24T03:59:19;13.80;99.90
37289;DHT22;23174;49.462;11.000;2023-04-24T04:01:19;13.80;99.90
37289;DHT22;23174;49.462;11.000;2023-04-24T04:03:20;13.80;99.90
37289;DHT22;23174;49.462;11.000;2023-04-24T04:05:21;13.80;99.90
37289;DHT22;23174;49.462;11.000;2023-04-24T04:07:21;13.80;99.90
37289;DHT22;23174;49.462;11.000;2023-04-24T04:09:22;13.80;99.90
37289;DHT22;23174;49.462;11.000;2023-04-24T04:11:23;13.80;99.90
37289;DHT22;23174;49.462;11.000;2023-04-24T04:13:23;13.90;99.90
37289;DHT22;23174;49.462;11.000;2023-04-24T04:15:24;13.80;99.90
37289;DHT22;23174;49.462;11.000;2023-04-24T04:17:24;13.80;99.90
37289;DHT22;23174;49.462;11.000;2023-04-24T04:19:25;13.70;99.90
37289;DHT22;23174;49.462;11.000;2023-04-24T04:21:25;13.70;99.90
37289;DHT22;23174;49.462;11.000;2023-04-24T04:23:26;13.70;99.90
37289;DHT22;23174;49.462;11.000;2023-04-24T04:25:28;13.70;99.90
37289;DHT22;23174;49.462;11.000;2023-04-24T04:27:29;13.70;99.90
37289;DHT22;23174;49.462;11.000;2023-04-24T04:29:32;13.70;99.90
37289;DHT22;23174;49.462;11.000;2023-04-24T04:31:32;13.70;99.90
37289;DHT22;23174;49.462;11.000;2023-04-24T04:33:33;13.70;99.90
37289;DHT22;23174;49.462;11.000;2023-04-24T04:35:34;13.60;99.90
37289;DHT22;23174;49.462;11.000;2023-04-24T04:37:35;13.60;99.90
37289;DHT22;23174;49.462;11.000;2023-04-24T04:39:35;13.60;99.90
37289;DHT22;23174;49.462;11.000;2023-04-24T04:41:36;13.60;99.90
37289;DHT22;23174;49.462;11.000;2023-04-24T04:43:37;13.70;99.90
37289;DHT22;23174;49.462;11.000;2023-04-24T04:45:40;13.70;99.90
37289;DHT22;23174;49.462;11.000;2023-04-24T04:47:43;13.60;99.90
37289;DHT22;23174;49.462;11.000;2023-04-24T04:49:44;13.50;99.90
37289;DHT22;23174;49.462;11.000;2023-04-24T04:51:45;13.50;99.90
37289;DHT22;23174;49.462;11.000;2023-04-24T04:53:46;13.60;99.90
37289;DHT22;23174;49.462;11.000;2023-04-24T04:55:46;13.50;99.90
37289;DHT22;23174;49.462;11.000;2023-04-24T04:57:47;13.50;99.90
37289;DHT22;23174;49.462;11.000;2023-04-24T04:59:48;13.60;99.90
37289;DHT22;23174;49.462;11.000;2023-04-24T05:01:48;13.60;99.90
37289;DHT22;23174;49.462;11.000;2023-04-24T05:03:49;13.50;99.90
37289;DHT22;23174;49.462;11.000;2023-04-24T05:05:49;13.50;99.90
37289;DHT22;23174;49.462;11.000;2023-04-24T05:07:50;13.50;99.90
37289;DHT22;23174;49.462;11.000;2023-04-24T05:09:50;13.60;99.90
37289;DHT22;23174;49.462;11.000;2023-04-24T05:11:53;13.60;99.90
37289;DHT22;23174;49.462;11.000;2023-04-24T05:13:53;13.60;99.90
37289;DHT22;23174;49.462;11.000;2023-04-24T05:15:54;13.50;99.90
37289;DHT22;23174;49.462;11.000;2023-04-24T05:17:54;13.60;99.90
37289;DHT22;23174;49.462;11.000;2023-04-24T05:19:55;13.60;99.90
37289;DHT22;23174;49.462;11.000;2023-04-24T05:21:55;13.70;99.90
37289;DHT22;23174;49.462;11.000;2023-04-24T05:23:56;13.60;99.90
37289;DHT22;23174;49.462;11.000;2023-04-24T05:25:56;13.50;99.90
37289;DHT22;23174;49.462;11.000;2023-04-24T05:27:57;13.60;99.90
37289;DHT22;23174;49.462;11.000;2023-04-24T05:29:58;13.60;99.90
37289;DHT22;23174;49.462;11.000;2023-04-24T05:31:59;13.60;99.90
37289;DHT22;23174;49.462;11.000;2023-04-24T05:34:00;13.70;99.90
37289;DHT22;23174;49.462;11.000;2023-04-24T05:36:01;13.70;99.90
37289;DHT22;23174;49.462;11.000;2023-04-24T05:38:01;13.70;99.90
37289;DHT22;23174;49.462;11.000;2023-04-24T05:40:02;13.70;99.90
37289;DHT22;23174;49.462;11.000;2023-04-24T05:42:04;13.80;99.90
37289;DHT22;23174;49.462;11.000;2023-04-24T05:44:05;13.70;99.90
37289;DHT22;23174;49.462;11.000;2023-04-24T05:46:05;13.70;99.90
37289;DHT22;23174;49.462;11.000;2023-04-24T05:48:06;13.70;99.90
37289;DHT22;23174;49.462;11.000;2023-04-24T05:50:07;13.80;99.90
37289;DHT22;23174;49.462;11.000;2023-04-24T05:52:07;13.80;99.90
37289;DHT22;23174;49.462;11.000;2023-04-24T05:54:09;13.80;99.90
37289;DHT22;23174;49.462;11.000;2023-04-24T05:56:10;13.70;99.90
37289;DHT22;23174;49.462;11.000;2023-04-24T05:58:12;13.90;99.90
37289;DHT22;23174;49.462;11.000;2023-04-24T06:00:13;13.90;99.90
37289;DHT22;23174;49.462;11.000;2023-04-24T06:02:13;13.80;99.90
37289;DHT22;23174;49.462;11.000;2023-04-24T06:04:14;14.00;99.90
37289;DHT22;23174;49.462;11.000;2023-04-24T06:06:14;13.90;99.90
37289;DHT22;23174;49.462;11.000;2023-04-24T06:08:15;14.00;99.90
37289;DHT22;23174;49.462;11.000;2023-04-24T06:10:16;14.00;99.90
37289;DHT22;23174;49.462;11.000;2023-04-24T06:12:16;14.10;99.90
37289;DHT22;23174;49.462;11.000;2023-04-24T06:14:17;14.20;99.90
37289;DHT22;23174;49.462;11.000;2023-04-24T06:16:17;14.20;99.90
37289;DHT22;23174;49.462;11.000;2023-04-24T06:18:18;14.20;99.90
37289;DHT22;23174;49.462;11.000;2023-04-24T06:20:19;14.20;99.90
37289;DHT22;23174;49.462;11.000;2023-04-24T06:22:20;14.20;99.90
37289;DHT22;23174;49.462;11.000;2023-04-24T06:24:20;14.20;99.90
37289;DHT22;23174;49.462;11.000;2023-04-24T06:26:21;14.10;99.90
37289;DHT22;23174;49.462;11.000;2023-04-24T06:28:22;14.10;99.90
37289;DHT22;23174;49.462;11.000;2023-04-24T06:30:23;14.10;99.90
37289;DHT22;23174;49.462;11.000;2023-04-24T06:32:24;14.10;99.90
37289;DHT22;23174;49.462;11.000;2023-04-24T06:34:24;13.70;99.90
37289;DHT22;23174;49.462;11.000;2023-04-24T06:36:25;13.60;99.90
37289;DHT22;23174;49.462;11.000;2023-04-24T06:38:26;13.40;99.90
37289;DHT22;23174;49.462;11.000;2023-04-24T06:40:27;13.30;99.90
37289;DHT22;23174;49.462;11.000;2023-04-24T06:42:27;13.20;99.90
37289;DHT22;23174;49.462;11.000;2023-04-24T06:44:28;13.10;99.90
37289;DHT22;23174;49.462;11.000;2023-04-24T06:46:28;13.00;99.90
37289;DHT22;23174;49.462;11.000;2023-04-24T06:48:30;13.00;99.90
37289;DHT22;23174;49.462;11.000;2023-04-24T06:50:30;13.10;99.90
37289;DHT22;23174;49.462;11.000;2023-04-24T06:52:31;13.20;99.90
37289;DHT22;23174;49.462;11.000;2023-04-24T06:54:35;13.10;99.90
37289;DHT22;23174;49.462;11.000;2023-04-24T06:56:36;13.10;99.90
37289;DHT22;23174;49.462;11.000;2023-04-24T06:58:36;13.10;99.90
37289;DHT22;23174;49.462;11.000;2023-04-24T07:00:37;13.10;99.90
37289;DHT22;23174;49.462;11.000;2023-04-24T07:02:37;13.10;99.90
37289;DHT22;23174;49.462;11.000;2023-04-24T07:04:38;13.10;99.90
37289;DHT22;23174;49.462;11.000;2023-04-24T07:06:39;13.10;99.90
37289;DHT22;23174;49.462;11.000;2023-04-24T07:08:40;13.20;99.90
37289;DHT22;23174;49.462;11.000;2023-04-24T07:10:42;13.20;99.90
37289;DHT22;23174;49.462;11.000;2023-04-24T07:12:42;13.20;99.90
37289;DHT22;23174;49.462;11.000;2023-04-24T07:14:43;13.30;99.90
37289;DHT22;23174;49.462;11.000;2023-04-24T07:16:43;13.00;99.90
37289;DHT22;23174;49.462;11.000;2023-04-24T07:18:45;12.90;99.90
37289;DHT22;23174;49.462;11.000;2023-04-24T07:20:45;12.80;99.90
37289;DHT22;23174;49.462;11.000;2023-04-24T07:22:46;12.70;99.90
37289;DHT22;23174;49.462;11.000;2023-04-24T07:24:48;12.80;99.90
37289;DHT22;23174;49.462;11.000;2023-04-24T07:26:48;12.80;99.90
37289;DHT22;23174;49.462;11.000;2023-04-24T07:28:51;12.90;99.90
37289;DHT22;23174;49.462;11.000;2023-04-24T07:30:52;13.00;99.90
37289;DHT22;23174;49.462;11.000;2023-04-24T07:32:54;12.90;99.90
37289;DHT22;23174;49.462;11.000;2023-04-24T07:34:55;12.90;99.90
37289;DHT22;23174;49.462;11.000;2023-04-24T07:36:55;12.80;99.90
37289;DHT22;23174;49.462;11.000;2023-04-24T07:38:56;12.80;99.90
37289;DHT22;23174;49.462;11.000;2023-04-24T07:40:57;12.90;99.90
37289;DHT22;23174;49.462;11.000;2023-04-24T07:42:57;12.80;99.90
37289;DHT22;23174;49.462;11.000;2023-04-24T07:44:58;12.70;99.90
37289;DHT22;23174;49.462;11.000;2023-04-24T07:46:59;12.70;99.90
37289;DHT22;23174;49.462;11.000;2023-04-24T07:49:00;12.70;99.90
37289;DHT22;23174;49.462;11.000;2023-04-24T07:51:01;12.70;99.90
37289;DHT22;23174;49.462;11.000;2023-04-24T07:53:02;12.70;99.90
37289;DHT22;23174;49.462;11.000;2023-04-24T07:55:02;12.80;99.90
37289;DHT22;23174;49.462;11.000;2023-04-24T07:57:03;12.80;99.90
37289;DHT22;23174;49.462;11.000;2023-04-24T07:59:05;13.00;99.90
37289;DHT22;23174;49.462;11.000;2023-04-24T08:01:06;13.10;99.90
37289;DHT22;23174;49.462;11.000;2023-04-24T08:03:06;13.20;99.90
37289;DHT22;23174;49.462;11.000;2023-04-24T08:05:07;13.30;99.90
37289;DHT22;23174;49.462;11.000;2023-04-24T08:07:08;13.30;99.90
37289;DHT22;23174;49.462;11.000;2023-04-24T08:09:08;13.40;99.90
37289;DHT22;23174;49.462;11.000;2023-04-24T08:11:09;13.30;99.90
37289;DHT22;23174;49.462;11.000;2023-04-24T08:13:10;13.30;99.90
37289;DHT22;23174;49.462;11.000;2023-04-24T08:15:11;13.40;99.90
37289;DHT22;23174;49.462;11.000;2023-04-24T08:17:12;13.30;99.90
37289;DHT22;23174;49.462;11.000;2023-04-24T08:19:12;13.20;99.90
37289;DHT22;23174;49.462;11.000;2023-04-24T08:21:13;13.20;99.90
37289;DHT22;23174;49.462;11.000;2023-04-24T08:23:17;13.10;99.90
37289;DHT22;23174;49.462;11.000;2023-04-24T08:25:17;13.20;99.90
37289;DHT22;23174;49.462;11.000;2023-04-24T08:27:19;13.10;99.90
37289;DHT22;23174;49.462;11.000;2023-04-24T08:29:20;13.20;99.90
37289;DHT22;23174;49.462;11.000;2023-04-24T08:31:21;13.20;99.90
37289;DHT22;23174;49.462;11.000;2023-04-24T08:33:23;13.40;99.90
37289;DHT22;23174;49.462;11.000;2023-04-24T08:35:23;13.40;99.90
37289;DHT22;23174;49.462;11.000;2023-04-24T08:37:26;13.50;99.90
37289;DHT22;23174;49.462;11.000;2023-04-24T08:39:27;13.50;99.90
37289;DHT22;23174;49.462;11.000;2023-04-24T08:41:27;13.50;99.90
37289;DHT22;23174;49.462;11.000;2023-04-24T08:43:28;13.50;99.90
37289;DHT22;23174;49.462;11.000;2023-04-24T08:45:29;13.60;99.90
37289;DHT22;23174;49.462;11.000;2023-04-24T08:47:30;13.50;99.90
37289;DHT22;23174;49.462;11.000;2023-04-24T08:49:31;13.60;99.90
37289;DHT22;23174;49.462;11.000;2023-04-24T08:51:33;13.60;99.90
37289;DHT22;23174;49.462;11.000;2023-04-24T08:53:33;13.60;99.90
37289;DHT22;23174;49.462;11.000;2023-04-24T08:55:35;13.60;99.90
37289;DHT22;23174;49.462;11.000;2023-04-24T08:57:36;13.40;99.90
37289;DHT22;23174;49.462;11.000;2023-04-24T08:59:38;13.40;99.90
37289;DHT22;23174;49.462;11.000;2023-04-24T09:01:40;13.30;99.90
37289;DHT22;23174;49.462;11.000;2023-04-24T09:03:41;13.30;99.90
37289;DHT22;23174;49.462;11.000;2023-04-24T09:05:43;13.30;99.90
37289;DHT22;23174;49.462;11.000;2023-04-24T09:07:49;13.40;99.90
37289;DHT22;23174;49.462;11.000;2023-04-24T09:09:52;13.40;99.90
37289;DHT22;23174;49.462;11.000;2023-04-24T09:11:53;13.40;99.90
37289;DHT22;23174;49.462;11.000;2023-04-24T09:13:58;13.40;99.90
37289;DHT22;23174;49.462;11.000;2023-04-24T09:15:58;13.60;99.90
37289;DHT22;23174;49.462;11.000;2023-04-24T09:18:00;13.60;99.90
37289;DHT22;23174;49.462;11.000;2023-04-24T09:20:01;13.70;99.90
37289;DHT22;23174;49.462;11.000;2023-04-24T09:22:06;13.80;99.90
37289;DHT22;23174;49.462;11.000;2023-04-24T09:24:14;13.90;99.90
37289;DHT22;23174;49.462;11.000;2023-04-24T09:26:18;14.00;99.90
37289;DHT22;23174;49.462;11.000;2023-04-24T09:28:25;13.90;99.90
37289;DHT22;23174;49.462;11.000;2023-04-24T09:30:26;13.90;99.90
37289;DHT22;23174;49.462;11.000;2023-04-24T09:32:27;13.80;99.90
37289;DHT22;23174;49.462;11.000;2023-04-24T09:34:29;13.80;99.90
37289;DHT22;23174;49.462;11.000;2023-04-24T09:36:34;13.90;99.90
37289;DHT22;23174;49.462;11.000;2023-04-24T09:38:37;13.90;99.90
37289;DHT22;23174;49.462;11.000;2023-04-24T09:40:39;14.00;99.90
37289;DHT22;23174;49.462;11.000;2023-04-24T09:42:43;14.00;99.90
37289;DHT22;23174;49.462;11.000;2023-04-24T09:44:44;14.30;99.90
37289;DHT22;23174;49.462;11.000;2023-04-24T09:46:56;14.40;99.90
37289;DHT22;23174;49.462;11.000;2023-04-24T09:48:57;14.40;99.90
37289;DHT22;23174;49.462;11.000;2023-04-24T09:50:58;14.60;99.90
37289;DHT22;23174;49.462;11.000;2023-04-24T09:53:01;14.50;99.90
37289;DHT22;23174;49.462;11.000;2023-04-24T09:55:02;14.70;99.90
37289;DHT22;23174;49.462;11.000;2023-04-24T09:57:10;15.00;99.90
37289;DHT22;23174;49.462;11.000;2023-04-24T09:59:12;15.20;99.90
37289;DHT22;23174;49.462;11.000;2023-04-24T10:01:13;15.10;99.90
37289;DHT22;23174;49.462;11.000;2023-04-24T10:03:13;15.00;99.90
37289;DHT22;23174;49.462;11.000;2023-04-24T10:05:14;15.00;99.90
37289;DHT22;23174;49.462;11.000;2023-04-24T10:07:15;14.90;99.90
37289;DHT22;23174;49.462;11.000;2023-04-24T10:09:17;14.80;99.90
37289;DHT22;23174;49.462;11.000;2023-04-24T10:11:18;14.80;99.90
37289;DHT22;23174;49.462;11.000;2023-04-24T10:13:19;15.00;99.90
37289;DHT22;23174;49.462;11.000;2023-04-24T10:15:20;15.10;99.90
37289;DHT22;23174;49.462;11.000;2023-04-24T10:17:22;15.30;99.90
37289;DHT22;23174;49.462;11.000;2023-04-24T10:19:25;15.30;99.90
37289;DHT22;23174;49.462;11.000;2023-04-24T10:21:26;15.40;99.90
37289;DHT22;23174;49.462;11.000;2023-04-24T10:23:27;15.60;99.90
37289;DHT22;23174;49.462;11.000;2023-04-24T10:25:30;15.50;99.90
37289;DHT22;23174;49.462;11.000;2023-04-24T10:27:32;15.60;99.90
37289;DHT22;23174;49.462;11.000;2023-04-24T10:29:34;15.60;99.90
37289;DHT22;23174;49.462;11.000;2023-04-24T10:31:36;15.70;99.90
37289;DHT22;23174;49.462;11.000;2023-04-24T10:33:39;15.70;99.90
37289;DHT22;23174;49.462;11.000;2023-04-24T10:35:44;15.60;99.90
37289;DHT22;23174;49.462;11.000;2023-04-24T10:37:49;15.40;99.90
37289;DHT22;23174;49.462;11.000;2023-04-24T10:39:50;15.10;99.90
37289;DHT22;23174;49.462;11.000;2023-04-24T10:41:55;15.00;99.90
37289;DHT22;23174;49.462;11.000;2023-04-24T10:44:12;14.90;99.90
37289;DHT22;23174;49.462;11.000;2023-04-24T10:46:19;14.90;99.90
37289;DHT22;23174;49.462;11.000;2023-04-24T10:48:26;14.80;99.90
37289;DHT22;23174;49.462;11.000;2023-04-24T10:50:28;14.70;99.90
37289;DHT22;23174;49.462;11.000;2023-04-24T10:52:44;14.60;99.90
37289;DHT22;23174;49.462;11.000;2023-04-24T10:54:46;14.50;99.90
37289;DHT22;23174;49.462;11.000;2023-04-24T10:56:47;14.30;99.90
37289;DHT22;23174;49.462;11.000;2023-04-24T10:58:50;14.30;99.90
37289;DHT22;23174;49.462;11.000;2023-04-24T11:00:57;14.10;99.90
37289;DHT22;23174;49.462;11.000;2023-04-24T11:02:58;14.10;99.90
37289;DHT22;23174;49.462;11.000;2023-04-24T11:05:03;14.10;99.90
37289;DHT22;23174;49.462;11.000;2023-04-24T11:07:04;14.10;99.90
37289;DHT22;23174;49.462;11.000;2023-04-24T11:09:06;14.10;99.90
37289;DHT22;23174;49.462;11.000;2023-04-24T11:11:16;14.20;99.90
37289;DHT22;23174;49.462;11.000;2023-04-24T11:13:21;14.20;99.90
37289;DHT22;23174;49.462;11.000;2023-04-24T11:15:22;14.20;99.90
37289;DHT22;23174;49.462;11.000;2023-04-24T11:17:36;14.20;99.90
37289;DHT22;23174;49.462;11.000;2023-04-24T11:19:39;14.30;99.90
37289;DHT22;23174;49.462;11.000;2023-04-24T11:21:48;13.80;99.90
37289;DHT22;23174;49.462;11.000;2023-04-24T11:23:48;13.90;99.90
37289;DHT22;23174;49.462;11.000;2023-04-24T11:26:09;13.80;99.90
37289;DHT22;23174;49.462;11.000;2023-04-24T11:28:14;13.90;99.90
37289;DHT22;23174;49.462;11.000;2023-04-24T11:30:22;14.00;99.90
37289;DHT22;23174;49.462;11.000;2023-04-24T11:34:29;14.50;99.90
37289;DHT22;23174;49.462;11.000;2023-04-24T11:36:31;14.50;99.90
37289;DHT22;23174;49.462;11.000;2023-04-24T11:38:32;14.50;99.90
37289;DHT22;23174;49.462;11.000;2023-04-24T11:40:32;14.50;99.90
37289;DHT22;23174;49.462;11.000;2023-04-24T11:42:37;14.50;99.90
37289;DHT22;23174;49.462;11.000;2023-04-24T11:44:38;14.60;99.90
37289;DHT22;23174;49.462;11.000;2023-04-24T11:46:40;14.50;99.90
37289;DHT22;23174;49.462;11.000;2023-04-24T11:48:45;14.50;99.90
37289;DHT22;23174;49.462;11.000;2023-04-24T11:50:46;14.50;99.90
37289;DHT22;23174;49.462;11.000;2023-04-24T11:52:48;14.30;99.90
37289;DHT22;23174;49.462;11.000;2023-04-24T11:54:49;14.30;99.90
37289;DHT22;23174;49.462;11.000;2023-04-24T11:56:50;14.30;99.90
37289;DHT22;23174;49.462;11.000;2023-04-24T11:58:53;14.30;99.90
37289;DHT22;23174;49.462;11.000;2023-04-24T12:00:57;14.20;99.90
37289;DHT22;23174;49.462;11.000;2023-04-24T12:03:11;14.10;99.90
37289;DHT22;23174;49.462;11.000;2023-04-24T12:05:24;14.10;99.90
37289;DHT22;23174;49.462;11.000;2023-04-24T12:07:26;14.10;99.90
37289;DHT22;23174;49.462;11.000;2023-04-24T12:09:26;14.00;99.90
37289;DHT22;23174;49.462;11.000;2023-04-24T12:11:27;14.10;99.90
37289;DHT22;23174;49.462;11.000;2023-04-24T12:13:28;14.10;99.90
37289;DHT22;23174;49.462;11.000;2023-04-24T12:15:29;14.10;99.90
37289;DHT22;23174;49.462;11.000;2023-04-24T12:17:32;14.20;99.90
37289;DHT22;23174;49.462;11.000;2023-04-24T12:19:32;14.30;99.90
37289;DHT22;23174;49.462;11.000;2023-04-24T12:21:33;14.50;99.90
37289;DHT22;23174;49.462;11.000;2023-04-24T12:23:37;14.70;99.90
37289;DHT22;23174;49.462;11.000;2023-04-24T12:25:38;14.90;99.90
37289;DHT22;23174;49.462;11.000;2023-04-24T12:27:39;15.00;99.90
37289;DHT22;23174;49.462;11.000;2023-04-24T12:29:52;15.00;99.90
37289;DHT22;23174;49.462;11.000;2023-04-24T12:31:54;15.10;99.90
37289;DHT22;23174;49.462;11.000;2023-04-24T12:33:55;15.10;99.90
37289;DHT22;23174;49.462;11.000;2023-04-24T12:35:55;15.10;99.90
37289;DHT22;23174;49.462;11.000;2023-04-24T12:38:06;15.00;99.90